createdAt,value
2022-10-16T00:03:46.370Z,13.90
2022-10-16T00:05:48.845Z,13.90
2022-10-16T00:07:51.345Z,13.90
2022-10-16T00:09:53.913Z,13.90
2022-10-16T00:11:56.430Z,13.90
2022-10-16T00:13:59.990Z,13.90
2022-10-16T00:16:03.032Z,13.90
2022-10-16T00:18:05.935Z,13.90
2022-10-16T00:20:09.132Z,13.90
2022-10-16T00:22:11.626Z,13.80
2022-10-16T00:24:14.097Z,13.70
2022-10-16T00:26:17.886Z,13.70
2022-10-16T00:28:20.846Z,13.70
2022-10-16T00:30:23.949Z,13.70
2022-10-16T00:32:26.716Z,13.70
2022-10-16T00:34:29.337Z,13.60
2022-10-16T00:36:32.508Z,13.60
2022-10-16T00:38:35.028Z,13.70
2022-10-16T00:40:37.503Z,13.70
2022-10-16T00:42:40.469Z,13.70
2022-10-16T00:44:47.602Z,13.70
2022-10-16T00:46:51.221Z,13.60
2022-10-16T00:48:55.552Z,13.70
2022-10-16T00:50:58.863Z,13.60
2022-10-16T00:53:02.574Z,13.50
2022-10-16T00:55:06.989Z,13.50
2022-10-16T00:57:10.099Z,13.50
2022-10-16T00:59:14.518Z,13.50
2022-10-16T01:01:17.078Z,13.40
2022-10-16T01:03:26.724Z,13.40
2022-10-16T01:05:31.016Z,13.40
2022-10-16T01:07:37.177Z,13.40
2022-10-16T01:09:42.497Z,13.40
2022-10-16T01:11:47.927Z,13.40
2022-10-16T01:13:52.261Z,13.50
2022-10-16T01:15:58.128Z,13.50
2022-10-16T01:18:02.444Z,13.50
2022-10-16T01:20:08.677Z,13.50
2022-10-16T01:22:11.437Z,13.50
2022-10-16T01:24:16.442Z,13.50
2022-10-16T01:26:24.151Z,13.50
2022-10-16T01:28:28.491Z,13.50
2022-10-16T01:30:33.269Z,13.50
2022-10-16T01:32:37.545Z,13.50
2022-10-16T01:34:41.845Z,13.40
2022-10-16T01:36:46.167Z,13.40
2022-10-16T01:38:50.582Z,13.40
2022-10-16T01:40:56.697Z,13.40
2022-10-16T01:43:00.906Z,13.20
2022-10-16T01:45:06.938Z,13.10
2022-10-16T01:47:10.269Z,13.20
2022-10-16T01:49:13.737Z,13.20
2022-10-16T01:51:17.812Z,13.20
2022-10-16T01:53:21.343Z,13.20
2022-10-16T01:55:25.670Z,13.20
2022-10-16T01:57:28.975Z,13.20
2022-10-16T01:59:32.783Z,13.20
2022-10-16T02:01:37.162Z,13.10
2022-10-16T02:03:41.941Z,13.20
2022-10-16T02:05:46.230Z,13.20
2022-10-16T02:07:49.133Z,13.30
2022-10-16T02:09:51.674Z,13.30
2022-10-16T02:11:55.729Z,13.30
2022-10-16T02:14:00.099Z,13.30
2022-10-16T02:16:02.602Z,13.30
2022-10-16T02:18:05.984Z,13.40
2022-10-16T02:20:09.147Z,13.30
2022-10-16T02:22:13.447Z,13.40
2022-10-16T02:24:17.903Z,13.40
2022-10-16T02:26:22.469Z,13.40
2022-10-16T02:28:27.428Z,13.40
2022-10-16T02:30:31.479Z,13.40
2022-10-16T02:32:35.247Z,13.50
2022-10-16T02:34:38.434Z,13.50
2022-10-16T02:36:41.827Z,13.50
2022-10-16T02:38:44.469Z,13.50
2022-10-16T02:40:47.030Z,13.50
2022-10-16T02:42:51.270Z,13.50
2022-10-16T02:44:53.905Z,13.50
2022-10-16T02:46:56.490Z,13.50
2022-10-16T02:48:58.999Z,13.50
2022-10-16T02:51:01.482Z,13.50
2022-10-16T02:53:03.939Z,13.50
2022-10-16T02:55:07.263Z,13.50
2022-10-16T02:57:09.782Z,13.50
2022-10-16T02:59:12.278Z,13.50
2022-10-16T03:01:16.820Z,13.50
2022-10-16T03:03:19.375Z,13.50
2022-10-16T03:07:24.687Z,13.60
2022-10-16T03:09:27.310Z,13.60
2022-10-16T03:11:29.827Z,13.60
2022-10-16T03:13:32.463Z,13.60
2022-10-16T03:15:34.958Z,13.60
2022-10-16T03:17:37.439Z,13.60
2022-10-16T03:19:39.922Z,13.70
2022-10-16T03:21:42.602Z,13.70
2022-10-16T03:23:45.244Z,13.60
2022-10-16T03:25:48.455Z,13.60
2022-10-16T03:27:51.032Z,13.60
2022-10-16T03:29:53.533Z,13.70
2022-10-16T03:31:56.200Z,13.60
2022-10-16T03:33:58.890Z,13.70
2022-10-16T03:36:01.486Z,13.70
2022-10-16T03:38:03.959Z,13.70
2022-10-16T03:40:07.476Z,13.80
2022-10-16T03:42:10.062Z,13.70
2022-10-16T03:44:12.627Z,13.70
2022-10-16T03:46:15.235Z,13.70
2022-10-16T03:48:17.830Z,13.80
2022-10-16T03:50:20.383Z,13.80
2022-10-16T03:52:22.874Z,13.70
2022-10-16T03:54:25.313Z,13.80
2022-10-16T03:56:28.015Z,13.70
2022-10-16T03:58:30.555Z,13.70
2022-10-16T04:00:33.058Z,13.70
2022-10-16T04:02:35.575Z,13.80
2022-10-16T04:04:38.082Z,13.70
2022-10-16T04:06:40.610Z,13.80
2022-10-16T04:08:44.357Z,13.70
2022-10-16T04:10:46.987Z,13.70
2022-10-16T04:12:49.470Z,13.70
2022-10-16T04:14:51.996Z,13.70
2022-10-16T04:16:54.503Z,13.70
2022-10-16T04:18:57.015Z,13.70
2022-10-16T04:21:03.507Z,13.70
2022-10-16T04:23:06.122Z,13.60
2022-10-16T04:25:09.293Z,13.60
2022-10-16T04:27:11.961Z,13.70
2022-10-16T04:29:14.427Z,13.70
2022-10-16T04:31:16.924Z,13.70
2022-10-16T04:33:19.433Z,13.50
2022-10-16T04:35:22.415Z,13.60
2022-10-16T04:37:26.057Z,13.60
2022-10-16T04:39:28.794Z,13.50
2022-10-16T04:41:31.301Z,13.40
2022-10-16T04:43:34.015Z,13.50
2022-10-16T04:45:36.596Z,13.50
2022-10-16T04:47:39.073Z,13.50
2022-10-16T04:49:41.670Z,13.50
2022-10-16T04:51:44.446Z,13.50
2022-10-16T04:53:46.909Z,13.50
2022-10-16T04:55:49.428Z,13.50
2022-10-16T04:57:52.056Z,13.60
2022-10-16T04:59:54.539Z,13.60
2022-10-16T05:01:57.025Z,13.60
2022-10-16T05:03:59.513Z,13.60
2022-10-16T05:06:01.981Z,13.70
2022-10-16T05:08:04.708Z,13.60
2022-10-16T05:10:07.612Z,13.60
2022-10-16T05:12:10.186Z,13.60
2022-10-16T05:14:13.684Z,13.60
2022-10-16T05:16:16.477Z,13.60
2022-10-16T05:18:18.970Z,13.70
2022-10-16T05:20:21.862Z,13.60
2022-10-16T05:22:24.429Z,13.60
2022-10-16T05:24:27.057Z,13.60
2022-10-16T05:26:29.545Z,13.60
2022-10-16T05:28:32.216Z,13.60
2022-10-16T05:30:34.905Z,13.60
2022-10-16T05:32:37.397Z,13.60
2022-10-16T05:34:39.892Z,13.60
2022-10-16T05:36:42.374Z,13.60
2022-10-16T05:38:44.912Z,13.50
2022-10-16T05:40:52.097Z,13.50
2022-10-16T05:42:56.450Z,13.60
2022-10-16T05:44:58.957Z,13.60
2022-10-16T05:47:01.532Z,13.60
2022-10-16T05:49:04.012Z,13.60
2022-10-16T05:51:07.788Z,13.70
2022-10-16T05:53:10.300Z,13.60
2022-10-16T05:55:12.794Z,13.60
2022-10-16T05:57:15.285Z,13.60
2022-10-16T05:59:18.174Z,13.60
2022-10-16T06:01:23.333Z,13.30
2022-10-16T06:03:26.047Z,13.80
2022-10-16T06:05:28.691Z,13.70
2022-10-16T06:07:32.971Z,13.70
2022-10-16T06:09:35.437Z,13.70
2022-10-16T06:11:37.973Z,13.80
2022-10-16T06:13:42.697Z,13.70
2022-10-16T06:15:45.477Z,13.80
2022-10-16T06:17:48.013Z,13.80
2022-10-16T06:19:50.486Z,13.80
2022-10-16T06:21:53.312Z,13.80
2022-10-16T06:23:56.326Z,13.80
2022-10-16T06:26:05.843Z,13.80
2022-10-16T06:28:08.302Z,13.80
2022-10-16T06:30:11.626Z,13.90
2022-10-16T06:32:14.085Z,13.90
2022-10-16T06:34:16.824Z,13.90
2022-10-16T06:36:19.495Z,13.90
2022-10-16T06:38:21.982Z,13.90
2022-10-16T06:40:24.797Z,13.90
2022-10-16T06:42:27.759Z,14.00
2022-10-16T06:44:30.499Z,14.00
2022-10-16T06:46:32.974Z,14.00
2022-10-16T06:48:35.974Z,14.00
2022-10-16T06:50:38.699Z,14.00
2022-10-16T06:52:41.190Z,14.00
2022-10-16T06:54:43.662Z,14.00
2022-10-16T06:56:46.284Z,14.00
2022-10-16T06:58:48.909Z,14.00
2022-10-16T07:00:56.583Z,14.10
2022-10-16T07:02:59.110Z,14.10
2022-10-16T07:05:01.702Z,14.10
2022-10-16T07:07:06.915Z,14.20
2022-10-16T07:09:10.670Z,14.10
2022-10-16T07:11:14.097Z,14.20
2022-10-16T07:13:16.718Z,14.20
2022-10-16T07:15:19.317Z,14.30
2022-10-16T07:17:21.823Z,14.30
2022-10-16T07:19:26.771Z,14.30
2022-10-16T07:21:30.991Z,14.40
2022-10-16T07:23:35.475Z,14.40
2022-10-16T07:25:39.016Z,14.50
2022-10-16T07:30:00.850Z,14.50
2022-10-16T07:32:05.176Z,14.60
2022-10-16T07:34:08.804Z,14.70
2022-10-16T07:36:16.312Z,14.80
2022-10-16T07:38:18.119Z,14.80
2022-10-16T07:40:22.827Z,14.80
2022-10-16T07:42:26.767Z,14.80
2022-10-16T07:44:30.216Z,14.70
2022-10-16T07:46:34.761Z,14.80
2022-10-16T07:48:38.239Z,14.80
2022-10-16T07:50:42.109Z,14.80
2022-10-16T07:52:45.808Z,14.70
2022-10-16T07:54:49.313Z,14.70
2022-10-16T07:56:53.166Z,14.70
2022-10-16T07:58:57.202Z,14.70
2022-10-16T08:01:02.768Z,14.70
2022-10-16T08:03:06.913Z,14.70
2022-10-16T08:05:13.167Z,14.70
2022-10-16T08:07:16.848Z,14.90
2022-10-16T08:09:20.633Z,14.90
2022-10-16T08:11:24.614Z,14.90
2022-10-16T08:13:28.421Z,14.90
2022-10-16T08:15:31.074Z,14.90
2022-10-16T08:17:34.571Z,14.90
2022-10-16T08:19:38.686Z,15.00
2022-10-16T08:21:41.261Z,15.10
2022-10-16T08:23:44.962Z,15.10
2022-10-16T08:25:48.837Z,15.20
2022-10-16T08:27:52.567Z,15.30
2022-10-16T08:29:57.693Z,15.40
2022-10-16T08:32:01.226Z,15.40
2022-10-16T08:34:05.216Z,15.50
2022-10-16T08:36:09.120Z,15.60
2022-10-16T08:38:13.201Z,15.70
2022-10-16T08:40:19.485Z,15.70
2022-10-16T08:42:30.257Z,15.80
2022-10-16T08:44:38.218Z,15.90
2022-10-16T08:46:50.378Z,16.00
2022-10-16T08:48:51.608Z,16.10
2022-10-16T08:50:56.023Z,16.20
2022-10-16T08:53:00.519Z,16.20
2022-10-16T08:55:05.203Z,16.20
2022-10-16T08:57:10.095Z,16.40
2022-10-16T08:59:14.466Z,16.40
2022-10-16T09:01:19.100Z,16.40
2022-10-16T09:03:25.670Z,16.40
2022-10-16T09:05:34.013Z,16.50
2022-10-16T09:07:39.391Z,16.50
2022-10-16T09:09:46.722Z,16.50
2022-10-16T09:11:51.276Z,16.60
2022-10-16T09:13:55.567Z,16.70
2022-10-16T09:16:02.223Z,16.70
2022-10-16T09:18:07.429Z,16.80
2022-10-16T09:20:17.305Z,16.80
2022-10-16T09:22:21.574Z,16.90
2022-10-16T09:24:28.545Z,16.90
2022-10-16T09:26:30.314Z,17.00
2022-10-16T09:28:32.928Z,17.00
2022-10-16T09:30:35.510Z,17.00
2022-10-16T09:32:39.325Z,17.10
2022-10-16T09:34:43.960Z,17.20
2022-10-16T09:36:47.295Z,17.50
2022-10-16T09:38:50.577Z,17.70
2022-10-16T09:40:58.962Z,17.70
2022-10-16T09:43:00.139Z,17.80
2022-10-16T09:45:03.043Z,18.00
2022-10-16T09:47:06.831Z,18.00
2022-10-16T09:49:19.862Z,18.00
2022-10-16T09:51:24.124Z,18.00
2022-10-16T09:53:27.694Z,17.90
2022-10-16T09:55:30.495Z,17.90
2022-10-16T09:57:35.218Z,18.00
2022-10-16T09:59:39.992Z,18.00
2022-10-16T10:01:43.795Z,17.90
2022-10-16T10:03:46.927Z,18.00
2022-10-16T10:05:51.823Z,18.10
2022-10-16T10:07:57.151Z,18.30
2022-10-16T10:09:59.667Z,18.50
2022-10-16T10:14:06.083Z,18.40
2022-10-16T10:16:08.704Z,18.50
2022-10-16T10:18:17.591Z,18.50
2022-10-16T10:20:24.971Z,18.60
2022-10-16T10:22:30.118Z,18.60
2022-10-16T10:24:32.768Z,18.60
2022-10-16T10:26:39.845Z,18.80
2022-10-16T10:28:46.355Z,18.80
2022-10-16T10:30:51.948Z,18.70
2022-10-16T10:32:58.566Z,18.80
2022-10-16T10:35:08.670Z,19.10
2022-10-16T10:37:12.934Z,19.00
2022-10-16T10:39:17.399Z,19.10
2022-10-16T10:41:30.537Z,19.00
2022-10-16T10:43:36.270Z,18.90
2022-10-16T10:45:41.495Z,18.70
2022-10-16T10:47:46.950Z,19.00
2022-10-16T10:49:52.470Z,19.10
2022-10-16T10:51:57.466Z,19.30
2022-10-16T10:54:03.301Z,19.30
2022-10-16T10:56:09.769Z,19.30
2022-10-16T10:58:17.596Z,19.40
2022-10-16T11:00:22.159Z,19.50
2022-10-16T11:02:26.783Z,19.50
2022-10-16T11:04:33.735Z,19.50
2022-10-16T11:06:37.680Z,19.60
2022-10-16T11:08:42.580Z,19.70
2022-10-16T11:10:48.144Z,19.60
2022-10-16T11:12:53.477Z,19.50
2022-10-16T11:14:58.693Z,19.70
2022-10-16T11:17:03.622Z,19.50
2022-10-16T11:19:08.090Z,19.60
2022-10-16T11:21:13.151Z,19.60
2022-10-16T11:23:17.903Z,19.60
2022-10-16T11:25:22.185Z,19.70
2022-10-16T11:27:26.952Z,19.60
2022-10-16T11:29:31.470Z,19.50
2022-10-16T11:31:35.972Z,19.30
2022-10-16T11:33:40.291Z,19.30
2022-10-16T11:35:45.375Z,19.30
2022-10-16T11:37:49.818Z,19.30
2022-10-16T11:40:06.539Z,19.50
2022-10-16T11:42:23.800Z,19.50
2022-10-16T11:44:33.098Z,19.50
2022-10-16T11:46:52.565Z,19.40
2022-10-16T11:48:44.859Z,19.50
2022-10-16T11:50:51.521Z,19.60
2022-10-16T11:52:57.779Z,19.50
2022-10-16T11:55:02.771Z,19.50
2022-10-16T11:57:07.469Z,19.60
2022-10-16T11:59:13.189Z,19.70
2022-10-16T12:01:19.063Z,19.60
2022-10-16T12:03:23.656Z,19.60
2022-10-16T12:05:28.440Z,19.60
2022-10-16T12:07:34.380Z,19.50
2022-10-16T12:09:38.750Z,19.50
2022-10-16T12:11:41.227Z,19.40
2022-10-16T12:13:43.701Z,19.30
2022-10-16T12:15:58.623Z,19.10
2022-10-16T12:17:51.113Z,19.10
2022-10-16T12:20:01.049Z,19.10
2022-10-16T12:22:04.567Z,19.00
2022-10-16T12:24:07.699Z,19.10
2022-10-16T12:26:11.489Z,19.10
2022-10-16T12:28:20.799Z,19.20
2022-10-16T12:30:24.648Z,19.30
2022-10-16T12:32:45.801Z,19.40
2022-10-16T12:34:38.446Z,19.50
2022-10-16T12:36:41.123Z,19.50
2022-10-16T12:38:48.082Z,19.60
2022-10-16T12:40:58.202Z,19.60
2022-10-16T12:43:02.466Z,19.80
2022-10-16T12:45:16.612Z,19.90
2022-10-16T12:47:23.576Z,19.80
2022-10-16T12:49:31.395Z,19.70
2022-10-16T12:51:35.745Z,19.70
2022-10-16T12:53:38.597Z,19.70
2022-10-16T12:55:45.176Z,19.70
2022-10-16T12:57:50.209Z,19.70
2022-10-16T12:59:54.737Z,19.80
2022-10-16T13:02:06.108Z,19.90
2022-10-16T13:04:33.997Z,19.80
2022-10-16T13:06:38.723Z,19.70
2022-10-16T13:08:45.641Z,19.60
2022-10-16T13:10:50.635Z,19.60
2022-10-16T13:12:58.109Z,19.60
2022-10-16T13:15:05.349Z,19.60
2022-10-16T13:17:09.649Z,19.50
2022-10-16T13:19:14.917Z,19.40
2022-10-16T13:21:23.646Z,19.40
2022-10-16T13:23:28.161Z,19.40
2022-10-16T13:25:34.126Z,19.40
2022-10-16T13:27:38.889Z,19.30
2022-10-16T13:29:42.279Z,19.30
2022-10-16T13:31:45.250Z,19.40
2022-10-16T13:33:48.966Z,19.50
2022-10-16T13:35:52.052Z,19.40
2022-10-16T13:38:04.549Z,19.50
2022-10-16T13:40:14.546Z,19.50
2022-10-16T13:42:19.507Z,19.60
2022-10-16T13:44:23.354Z,19.60
2022-10-16T13:46:26.465Z,19.60
2022-10-16T13:48:29.364Z,19.60
2022-10-16T13:50:31.863Z,19.60
2022-10-16T13:52:34.736Z,19.70
2022-10-16T13:54:37.247Z,19.80
2022-10-16T13:56:40.885Z,19.80
2022-10-16T13:58:43.560Z,19.70
2022-10-16T14:00:54.942Z,19.60
2022-10-16T14:02:59.369Z,19.60
2022-10-16T14:05:02.857Z,19.60
2022-10-16T14:07:05.382Z,19.50
2022-10-16T14:09:09.050Z,19.50
2022-10-16T14:11:11.664Z,19.50
2022-10-16T14:13:15.971Z,19.50
2022-10-16T14:15:19.383Z,19.50
2022-10-16T14:17:23.687Z,19.50
2022-10-16T14:19:27.063Z,19.60
2022-10-16T14:21:29.798Z,19.60
2022-10-16T14:23:34.152Z,19.70
2022-10-16T14:25:36.862Z,19.60
2022-10-16T14:27:39.391Z,19.50
2022-10-16T14:29:42.513Z,19.50
2022-10-16T14:31:46.828Z,19.40
2022-10-16T14:33:49.331Z,19.30
2022-10-16T14:36:02.743Z,19.40
2022-10-16T14:38:06.182Z,19.40
2022-10-16T14:40:15.512Z,19.40
2022-10-16T14:42:19.640Z,19.50
2022-10-16T14:44:24.083Z,19.50
2022-10-16T14:46:31.776Z,19.60
2022-10-16T14:48:34.578Z,19.60
2022-10-16T14:50:37.068Z,19.60
2022-10-16T14:52:39.588Z,19.50
2022-10-16T14:54:42.160Z,19.40
2022-10-16T14:56:46.923Z,19.20
2022-10-16T14:58:50.667Z,19.00
2022-10-16T15:00:53.142Z,19.00
2022-10-16T15:02:55.664Z,19.10
2022-10-16T15:07:14.404Z,18.90
2022-10-16T15:09:16.931Z,18.90
2022-10-16T15:11:20.510Z,19.00
2022-10-16T15:13:23.021Z,18.70
2022-10-16T15:15:28.463Z,18.60
2022-10-16T15:17:30.942Z,18.70
2022-10-16T15:19:34.430Z,18.70
2022-10-16T15:21:36.942Z,18.90
2022-10-16T15:23:39.530Z,19.00
2022-10-16T15:25:43.581Z,19.10
2022-10-16T15:27:46.053Z,19.10
2022-10-16T15:29:48.578Z,19.00
2022-10-16T15:31:51.159Z,18.90
2022-10-16T15:33:56.250Z,18.90
2022-10-16T15:35:58.750Z,18.90
2022-10-16T15:38:01.285Z,18.90
2022-10-16T15:40:04.473Z,18.70
2022-10-16T15:42:07.127Z,18.70
2022-10-16T15:44:09.675Z,18.60
2022-10-16T15:46:14.635Z,18.50
2022-10-16T15:48:17.316Z,18.50
2022-10-16T15:50:20.489Z,18.40
2022-10-16T15:52:22.981Z,18.40
2022-10-16T15:54:25.594Z,18.40
2022-10-16T15:56:28.938Z,18.30
2022-10-16T15:58:31.461Z,18.30
2022-10-16T16:00:33.927Z,18.30
2022-10-16T16:02:36.405Z,18.20
2022-10-16T16:04:43.757Z,18.10
2022-10-16T16:06:44.985Z,18.00
2022-10-16T16:08:47.465Z,18.00
2022-10-16T16:10:58.634Z,17.90
2022-10-16T16:13:01.089Z,17.90
2022-10-16T16:15:05.815Z,17.80
2022-10-16T16:17:08.473Z,17.70
2022-10-16T16:19:11.895Z,17.60
2022-10-16T16:21:14.779Z,17.50
2022-10-16T16:23:17.391Z,17.30
2022-10-16T16:25:19.979Z,17.20
2022-10-16T16:27:24.578Z,17.20
2022-10-16T16:29:27.352Z,17.20
2022-10-16T16:31:31.059Z,17.20
2022-10-16T16:33:33.856Z,17.10
2022-10-16T16:35:36.358Z,17.20
2022-10-16T16:37:38.808Z,17.10
2022-10-16T16:39:41.516Z,17.10
2022-10-16T16:41:45.069Z,17.00
2022-10-16T16:43:48.013Z,17.00
2022-10-16T16:45:54.727Z,17.00
2022-10-16T16:47:58.036Z,17.00
2022-10-16T16:50:02.825Z,17.00
2022-10-16T16:52:06.394Z,16.90
2022-10-16T16:54:10.494Z,16.90
2022-10-16T16:56:13.791Z,16.90
2022-10-16T16:58:21.150Z,17.00
2022-10-16T17:00:24.300Z,17.00
2022-10-16T17:02:27.610Z,17.10
2022-10-16T17:04:30.542Z,17.10
2022-10-16T17:06:33.516Z,17.00
2022-10-16T17:08:36.332Z,17.00
2022-10-16T17:10:43.958Z,17.00
2022-10-16T17:12:47.148Z,16.90
2022-10-16T17:14:52.107Z,16.80
2022-10-16T17:16:58.088Z,16.80
2022-10-16T17:19:02.656Z,16.80
2022-10-16T17:23:22.697Z,16.80
2022-10-16T17:25:27.533Z,16.80
2022-10-16T17:27:30.422Z,16.80
2022-10-16T17:29:33.177Z,16.80
2022-10-16T17:31:36.732Z,16.90
2022-10-16T17:33:39.556Z,16.80
2022-10-16T17:35:43.682Z,16.80
2022-10-16T17:37:46.290Z,16.80
2022-10-16T17:39:50.887Z,16.70
2022-10-16T17:41:53.366Z,16.60
2022-10-16T17:43:55.978Z,16.40
2022-10-16T17:46:00.259Z,16.30
2022-10-16T17:48:02.763Z,16.30
2022-10-16T17:50:05.850Z,16.20
2022-10-16T17:52:08.371Z,16.20
2022-10-16T17:54:13.462Z,16.20
2022-10-16T17:56:16.465Z,16.10
2022-10-16T17:58:19.066Z,16.20
2022-10-16T18:00:21.650Z,16.30
2022-10-16T18:02:24.356Z,16.40
2022-10-16T18:04:27.214Z,16.40
2022-10-16T18:06:30.739Z,16.50
2022-10-16T18:08:35.235Z,16.50
2022-10-16T18:10:39.693Z,16.50
2022-10-16T18:12:42.297Z,16.50
2022-10-16T18:14:44.829Z,16.40
2022-10-16T18:16:47.649Z,16.30
2022-10-16T18:18:50.291Z,16.20
2022-10-16T18:23:12.433Z,16.10
2022-10-16T18:25:14.920Z,16.10
2022-10-16T18:27:17.452Z,16.10
2022-10-16T18:29:19.940Z,16.10
2022-10-16T18:31:23.072Z,16.30
2022-10-16T18:33:25.743Z,16.30
2022-10-16T18:35:28.382Z,16.40
2022-10-16T18:37:31.122Z,16.40
2022-10-16T18:39:33.766Z,16.40
2022-10-16T18:41:37.929Z,16.40
2022-10-16T18:43:40.530Z,16.40
2022-10-16T18:45:43.218Z,16.20
2022-10-16T18:47:46.021Z,16.10
2022-10-16T18:49:49.542Z,16.00
2022-10-16T18:51:54.259Z,15.80
2022-10-16T18:53:57.650Z,15.80
2022-10-16T18:56:00.294Z,15.80
2022-10-16T18:58:02.818Z,15.80
2022-10-16T19:00:06.474Z,15.90
2022-10-16T19:02:09.634Z,15.80
2022-10-16T19:04:13.059Z,15.80
2022-10-16T19:06:16.478Z,15.70
2022-10-16T19:08:18.960Z,15.70
2022-10-16T19:10:21.465Z,15.70
2022-10-16T19:12:24.277Z,15.60
2022-10-16T19:14:28.646Z,15.60
2022-10-16T19:16:32.025Z,15.70
2022-10-16T19:18:36.315Z,15.70
2022-10-16T19:20:38.806Z,15.70
2022-10-16T19:22:52.122Z,15.70
2022-10-16T19:24:54.613Z,16.00
2022-10-16T19:26:57.304Z,15.80
2022-10-16T19:29:01.116Z,15.80
2022-10-16T19:31:04.171Z,15.80
2022-10-16T19:33:06.755Z,15.80
2022-10-16T19:35:09.455Z,15.90
2022-10-16T19:37:11.978Z,16.00
2022-10-16T19:39:16.585Z,16.00
2022-10-16T19:41:19.638Z,16.10
2022-10-16T19:43:22.721Z,16.10
2022-10-16T19:45:25.279Z,16.20
2022-10-16T19:47:27.895Z,16.10
2022-10-16T19:49:30.465Z,16.10
2022-10-16T19:51:33.145Z,16.10
2022-10-16T19:53:35.685Z,16.00
2022-10-16T19:55:38.530Z,15.90
2022-10-16T19:57:41.198Z,15.80
2022-10-16T19:59:45.662Z,15.60
2022-10-16T20:01:48.209Z,15.50
2022-10-16T20:03:50.993Z,15.50
2022-10-16T20:05:54.372Z,15.40
2022-10-16T20:07:57.047Z,15.20
2022-10-16T20:09:59.669Z,15.00
2022-10-16T20:12:02.875Z,14.80
2022-10-16T20:14:07.833Z,14.70
2022-10-16T20:16:11.782Z,14.70
2022-10-16T20:18:14.626Z,14.60
2022-10-16T20:20:18.793Z,14.50
2022-10-16T20:22:21.270Z,14.50
2022-10-16T20:24:23.809Z,14.40
2022-10-16T20:26:26.639Z,14.40
2022-10-16T20:28:29.315Z,14.30
2022-10-16T20:30:34.392Z,14.30
2022-10-16T20:32:36.922Z,14.30
2022-10-16T20:36:44.222Z,14.30
2022-10-16T20:38:46.960Z,14.20
2022-10-16T20:43:05.861Z,14.30
2022-10-16T20:45:09.237Z,14.30
2022-10-16T20:47:11.763Z,14.30
2022-10-16T20:49:28.422Z,14.30
2022-10-16T20:51:20.001Z,14.30
2022-10-16T20:53:22.694Z,14.30
2022-10-16T20:55:25.986Z,14.20
2022-10-16T20:57:28.708Z,14.20
2022-10-16T20:59:31.690Z,14.20
2022-10-16T21:01:35.872Z,14.20
2022-10-16T21:03:38.373Z,14.20
2022-10-16T21:05:41.507Z,14.20
2022-10-16T21:07:44.137Z,14.20
2022-10-16T21:09:46.638Z,14.20
2022-10-16T21:11:49.218Z,14.20
2022-10-16T21:13:52.761Z,14.20
2022-10-16T21:15:55.270Z,14.20
2022-10-16T21:17:57.946Z,14.20
2022-10-16T21:20:00.764Z,14.20
2022-10-16T21:22:03.246Z,14.20
2022-10-16T21:24:06.508Z,14.10
2022-10-16T21:26:09.025Z,14.10
2022-10-16T21:28:11.494Z,14.20
2022-10-16T21:30:14.002Z,14.20
2022-10-16T21:32:16.484Z,14.20
2022-10-16T21:34:18.980Z,14.20
2022-10-16T21:36:22.197Z,14.10
2022-10-16T21:38:24.996Z,14.10
2022-10-16T21:40:28.796Z,14.10
2022-10-16T21:42:31.881Z,14.20
2022-10-16T21:44:35.328Z,14.10
2022-10-16T21:46:39.214Z,14.20
2022-10-16T21:48:42.582Z,14.10
2022-10-16T21:50:48.173Z,14.10
2022-10-16T21:52:50.671Z,14.10
2022-10-16T21:54:53.166Z,14.10
2022-10-16T21:56:56.317Z,14.10
2022-10-16T21:58:58.769Z,14.00
2022-10-16T22:01:06.714Z,14.00
2022-10-16T22:03:09.246Z,14.00
2022-10-16T22:05:11.761Z,14.00
2022-10-16T22:07:14.250Z,14.00
2022-10-16T22:09:31.519Z,14.00
2022-10-16T22:11:36.445Z,14.00
2022-10-16T22:15:56.936Z,14.00
2022-10-16T22:18:00.897Z,14.00
2022-10-16T22:20:04.498Z,13.90
2022-10-16T22:22:26.635Z,13.90
2022-10-16T22:26:35.706Z,13.90
2022-10-16T22:28:39.354Z,14.00
2022-10-16T22:30:41.765Z,14.00
2022-10-16T22:32:44.250Z,14.00
2022-10-16T22:34:46.877Z,13.90
2022-10-16T22:36:50.377Z,13.80
2022-10-16T22:38:53.023Z,13.80
2022-10-16T22:40:55.752Z,13.80
2022-10-16T22:42:58.267Z,13.80
2022-10-16T22:45:00.753Z,13.80
2022-10-16T22:47:03.265Z,13.80
2022-10-16T22:49:05.789Z,13.80
2022-10-16T22:51:08.922Z,13.80
2022-10-16T22:53:11.426Z,13.80
2022-10-16T22:55:13.953Z,13.80
2022-10-16T22:57:16.443Z,13.80
2022-10-16T22:59:19.097Z,13.90
2022-10-16T23:01:23.378Z,13.90
2022-10-16T23:03:26.051Z,13.90
2022-10-16T23:05:28.550Z,13.90
2022-10-16T23:07:31.920Z,13.90
2022-10-16T23:09:34.433Z,13.90
2022-10-16T23:11:36.918Z,13.80
2022-10-16T23:13:39.819Z,13.90
2022-10-16T23:15:43.539Z,13.80
2022-10-16T23:17:46.046Z,13.80
2022-10-16T23:19:48.567Z,13.80
2022-10-16T23:21:51.354Z,13.80
2022-10-16T23:23:53.989Z,13.80
2022-10-16T23:25:56.489Z,13.80
2022-10-16T23:27:58.968Z,13.70
2022-10-16T23:30:01.622Z,13.70
2022-10-16T23:32:04.138Z,13.70
2022-10-16T23:34:06.696Z,13.70
2022-10-16T23:36:10.066Z,13.70
2022-10-16T23:38:12.549Z,13.70
2022-10-16T23:40:15.185Z,13.70
2022-10-16T23:42:17.908Z,13.80
2022-10-16T23:44:20.437Z,13.70
2022-10-16T23:46:22.905Z,13.70
2022-10-16T23:48:25.412Z,13.80
2022-10-16T23:50:29.721Z,13.70
2022-10-16T23:52:32.186Z,13.70
2022-10-16T23:54:34.692Z,13.70
2022-10-16T23:56:37.176Z,13.70
2022-10-16T23:58:39.869Z,13.70
